Weather at Hagerstown Regional Richard A Henson Field

Public forecast

Using degrees Fahrenheit for public forecast. Weather courtesy of forecast.io.

Current aviation weather report (METAR) for Hagerstown Regional Richard A Henson Field

Retrieved 2021/03/08 04:53 UTC (24 minutes ago):

KHGR 080453Z AUTO 00000KT 10SM CLR 01/M12 A3040 RMK AO2 SLP313 T00061122 400721056

Closest aviation forecast (TAF) to Hagerstown Regional Richard A Henson Field

Forecast is more than 6 hours old.

Closest forecast is Eastern WV Regional Airport/Shepherd Field, 21.8 nm (40.4 km) SSW. Retrieved 2021/03/07 18:22 UTC (11 hours ago):

TAF KMRB 071720Z 0718/0818 32008KT P6SM SKC FM080200 VRB03KT P6SM FEW250 FM081700 29005KT P6SM FEW250